Time;durP1;ratioP1;P1;durP2;ratioP2;P2;SDS_P1;SDS_P2;PMS_P1;PMS_P2;Temp;Humidity;BMP_temperature;BMP_pressure;BME280_temperature;BME280_humidity;BME280_pressure;Samples;Min_cycle;Max_cycle;Signal;HPM_P1;HPM_P2
2021/11/03 00:01:26;;;;;;;95.32;26.25;;;;;;;9.21;88.67;99497.09;5111038;27;20037;-71
2021/11/03 00:03:53;;;;;;;125.53;30.63;;;;;;;9.19;89.25;99514.91;5146060;27;20027;-71
2021/11/03 00:06:21;;;;;;;145.57;30.23;;;;;;;9.18;89.66;99515.91;5115556;27;20066;-71
2021/11/03 00:08:48;;;;;;;155.45;29.65;;;;;;;9.16;90.32;99513.41;5110130;27;20043;-71
2021/11/03 00:11:15;;;;;;;123.35;29.33;;;;;;;9.13;91.04;99516.38;5107981;27;20232;-72
2021/11/03 00:13:41;;;;;;;146.35;29.45;;;;;;;9.08;92.12;99523.13;5112606;27;20051;-71
2021/11/03 00:16:07;;;;;;;145.02;30.73;;;;;;;9.18;91.75;99527.28;5107458;27;20081;-71
2021/11/03 00:18:32;;;;;;;160.57;32.33;;;;;;;9.20;92.29;99530.59;5106755;28;20031;-71
2021/11/03 00:20:59;;;;;;;136.55;30.52;;;;;;;9.34;92.00;99533.63;5119613;27;20055;-71
2021/11/03 00:23:25;;;;;;;140.55;29.70;;;;;;;9.33;92.06;99531.97;5115096;27;20035;-71
2021/11/03 00:25:51;;;;;;;150.20;33.08;;;;;;;9.28;92.59;99530.63;5111847;27;20038;-71
2021/11/03 00:28:19;;;;;;;160.27;29.73;;;;;;;9.38;92.38;99535.81;5112098;27;20027;-71
2021/11/03 00:30:47;;;;;;;112.53;29.80;;;;;;;9.34;92.73;99537.09;5107606;27;20040;-71
2021/11/03 00:33:13;;;;;;;141.45;30.92;;;;;;;9.35;93.66;99544.03;5128387;27;20023;-71
2021/11/03 00:35:39;;;;;;;101.70;27.73;;;;;;;9.38;93.21;99541.09;5117306;27;20087;-72
2021/11/03 00:38:04;;;;;;;105.65;29.70;;;;;;;9.42;92.32;99538.97;5116473;27;20039;-71
2021/11/03 00:40:30;;;;;;;111.63;29.05;;;;;;;9.54;91.75;99541.16;5107930;27;20171;-71
2021/11/03 00:42:55;;;;;;;92.95;26.25;;;;;;;9.58;91.29;99547.78;5115580;27;20077;-71
2021/11/03 00:45:21;;;;;;;74.38;26.13;;;;;;;9.74;89.18;99559.41;5106169;27;20095;-71
2021/11/03 00:47:47;;;;;;;60.97;26.27;;;;;;;9.59;89.79;99548.63;5106859;27;20081;-71
2021/11/03 00:50:13;;;;;;;78.43;27.58;;;;;;;9.58;89.66;99550.44;5116773;27;20029;-71
2021/11/03 00:52:39;;;;;;;72.75;25.33;;;;;;;9.47;89.46;99534.88;5107966;27;20111;-71
2021/11/03 00:55:05;;;;;;;57.30;24.67;;;;;;;9.19;90.15;99551.91;5112984;27;20035;-71
2021/11/03 00:57:30;;;;;;;62.90;25.95;;;;;;;9.25;90.27;99557.38;5107791;27;20268;-71
2021/11/03 00:59:56;;;;;;;54.60;25.20;;;;;;;9.39;90.54;99545.41;5109640;27;20028;-71
2021/11/03 01:02:21;;;;;;;53.97;25.52;;;;;;;9.45;90.21;99546.59;5116387;27;20115;-72
2021/11/03 01:04:47;;;;;;;76.50;25.88;;;;;;;9.50;89.46;99555.69;5114343;27;20035;-71
2021/11/03 01:07:13;;;;;;;52.78;22.65;;;;;;;9.51;89.00;99557.34;5119246;27;20035;-71
2021/11/03 01:09:38;;;;;;;52.33;23.55;;;;;;;9.52;89.63;99566.94;5107857;27;20044;-71
2021/11/03 01:12:04;;;;;;;56.58;23.95;;;;;;;9.53;90.21;99567.75;5112607;27;20046;-71
2021/11/03 01:14:30;;;;;;;51.33;23.00;;;;;;;9.56;89.12;99562.16;5109831;27;20035;-71
2021/11/03 01:16:56;;;;;;;58.50;23.08;;;;;;;9.56;89.15;99570.91;5112615;27;20043;-71
2021/11/03 01:19:21;;;;;;;52.88;20.50;;;;;;;9.59;88.73;99569.75;5105202;28;20093;-71
2021/11/03 01:21:47;;;;;;;50.25;23.25;;;;;;;9.60;88.05;99564.31;5111895;27;20113;-71
2021/11/03 01:24:12;;;;;;;52.90;22.60;;;;;;;9.35;90.09;99572.28;5118023;27;20043;-72
2021/11/03 01:26:38;;;;;;;51.53;23.55;;;;;;;9.24;91.06;99568.09;5107578;27;20023;-72
2021/11/03 01:29:04;;;;;;;50.08;22.30;;;;;;;9.23;91.17;99564.63;5109414;27;20023;-70
2021/11/03 01:31:30;;;;;;;49.45;24.35;;;;;;;9.31;91.44;99584.97;5145281;27;20089;-71
2021/11/03 01:33:56;;;;;;;43.33;22.67;;;;;;;9.38;91.13;99588.69;5105431;27;20040;-71
2021/11/03 01:36:22;;;;;;;57.92;21.83;;;;;;;9.27;90.75;99573.91;5111519;27;20040;-71
2021/11/03 01:38:47;;;;;;;49.72;21.15;;;;;;;9.34;90.62;99567.97;5114609;27;20031;-71
2021/11/03 01:41:13;;;;;;;44.78;22.45;;;;;;;9.47;90.42;99585.09;5109387;28;20028;-71
2021/11/03 01:43:51;;;;;;;43.55;22.05;;;;;;;9.53;88.98;99594.19;5109527;28;20028;-71
2021/11/03 01:46:26;;;;;;;50.58;22.45;;;;;;;9.54;88.42;99601.13;5120348;27;20058;-71
2021/11/03 01:49:00;;;;;;;41.13;21.35;;;;;;;9.55;88.72;99598.34;5110068;28;20046;-71
2021/11/03 01:51:36;;;;;;;62.08;21.92;;;;;;;9.64;86.73;99598.38;5118371;28;20044;-71
2021/11/03 01:54:04;;;;;;;59.08;21.40;;;;;;;9.52;87.18;99585.44;5114164;28;20063;-71
2021/11/03 01:56:31;;;;;;;46.67;21.58;;;;;;;9.42;87.55;99584.72;5113828;28;20309;-71
2021/11/03 01:59:06;;;;;;;42.30;21.55;;;;;;;9.52;86.85;99595.19;5105166;28;20275;-72
2021/11/03 02:01:34;;;;;;;40.80;20.77;;;;;;;9.41;86.16;99596.28;5111575;28;20051;-71
2021/11/03 02:03:59;;;;;;;51.83;22.40;;;;;;;9.26;88.20;99598.66;5114911;28;20062;-71
2021/11/03 02:06:26;;;;;;;47.95;22.67;;;;;;;9.35;89.07;99606.63;5109425;28;20039;-71
2021/11/03 02:08:53;;;;;;;56.00;22.20;;;;;;;9.28;89.68;99599.34;5104829;28;20390;-71
2021/11/03 02:11:22;;;;;;;45.15;21.48;;;;;;;9.37;89.42;99607.34;5107172;28;20069;-71
2021/11/03 02:13:47;;;;;;;48.00;21.98;;;;;;;9.42;88.53;99608.50;5117840;28;20235;-71
2021/11/03 02:16:15;;;;;;;40.15;20.17;;;;;;;9.42;88.13;99597.94;5110413;28;20103;-71
2021/11/03 02:18:41;;;;;;;44.55;20.83;;;;;;;9.40;87.85;99599.09;5111826;28;20039;-72
2021/11/03 02:21:10;;;;;;;41.03;19.85;;;;;;;9.41;87.94;99608.69;5109935;28;20060;-72
2021/11/03 02:23:45;;;;;;;45.20;19.23;;;;;;;9.40;86.80;99615.78;5115675;28;20063;-71
2021/11/03 02:26:28;;;;;;;52.83;18.88;;;;;;;9.35;87.08;99622.47;5113767;28;20659;-71
2021/11/03 02:28:55;;;;;;;35.63;18.65;;;;;;;9.27;89.29;99626.75;5103521;27;20027;-71
2021/11/03 02:31:48;;;;;;;42.00;18.52;;;;;;;9.31;89.73;99629.06;5145852;27;20023;-71
2021/11/03 02:34:23;;;;;;;35.35;17.65;;;;;;;9.36;89.31;99632.06;5114822;27;20069;-71
2021/11/03 02:36:51;;;;;;;29.80;17.48;;;;;;;9.28;89.92;99633.69;5117716;27;20062;-71
2021/11/03 02:39:22;;;;;;;32.60;17.73;;;;;;;9.35;88.89;99638.34;5120696;27;20051;-71
2021/11/03 02:41:47;;;;;;;33.95;17.92;;;;;;;8.83;89.51;99611.94;5123558;27;20337;-71
2021/11/03 02:44:15;;;;;;;48.10;18.92;;;;;;;8.81;90.96;99643.75;5113674;27;20090;-72
2021/11/03 02:46:42;;;;;;;33.70;18.92;;;;;;;8.72;91.76;99643.84;5114920;27;20023;-71
2021/11/03 02:49:09;;;;;;;34.75;17.98;;;;;;;8.80;91.34;99643.91;5120676;27;20325;-71
2021/11/03 02:51:41;;;;;;;33.15;18.00;;;;;;;8.96;90.63;99644.03;5110834;27;20363;-71
2021/11/03 02:54:16;;;;;;;36.38;17.92;;;;;;;8.79;90.32;99651.00;5107370;27;20020;-71
2021/11/03 02:56:47;;;;;;;52.33;18.02;;;;;;;8.78;89.91;99648.53;5108915;27;20024;-71
2021/11/03 02:59:15;;;;;;;42.88;18.80;;;;;;;8.72;90.27;99649.97;5117409;27;20297;-71
2021/11/03 03:01:47;;;;;;;33.95;18.30;;;;;;;8.88;89.69;99659.81;5115591;27;20019;-71
2021/11/03 03:04:22;;;;;;;27.42;16.60;;;;;;;8.88;87.76;99642.16;5119852;27;20087;-71
2021/11/03 03:06:48;;;;;;;29.42;16.70;;;;;;;8.87;87.99;99652.88;5117943;27;20320;-71
2021/11/03 03:09:14;;;;;;;31.30;18.30;;;;;;;8.71;88.62;99664.13;5113982;27;20281;-72
2021/11/03 03:11:42;;;;;;;32.83;17.95;;;;;;;8.47;90.09;99664.75;5117785;27;20023;-71
2021/11/03 03:14:09;;;;;;;30.90;17.30;;;;;;;8.58;89.79;99667.16;5109211;27;20094;-71
2021/11/03 03:16:35;;;;;;;43.45;19.50;;;;;;;8.44;89.87;99665.06;5115934;27;20035;-71
2021/11/03 03:19:01;;;;;;;49.60;18.20;;;;;;;8.55;88.72;99680.66;5111011;27;20048;-71
2021/11/03 03:21:28;;;;;;;47.15;20.02;;;;;;;8.41;89.20;99685.63;5118180;27;20035;-71
2021/11/03 03:23:54;;;;;;;36.97;17.80;;;;;;;8.45;90.11;99682.53;5110058;27;20030;-71
2021/11/03 03:26:21;;;;;;;34.13;18.17;;;;;;;8.85;86.97;99683.88;5111497;27;20027;-71
2021/11/03 03:28:47;;;;;;;38.88;17.30;;;;;;;8.92;86.21;99691.06;5109616;27;20309;-71
2021/11/03 03:31:14;;;;;;;43.28;17.95;;;;;;;8.94;87.48;99699.66;5106231;28;20031;-71
2021/11/03 03:33:40;;;;;;;52.80;17.45;;;;;;;8.94;87.10;99712.03;5112503;27;20050;-71
2021/11/03 03:36:07;;;;;;;40.83;19.50;;;;;;;8.99;86.34;99707.09;5114573;27;20036;-71
2021/11/03 03:38:32;;;;;;;46.90;19.38;;;;;;;8.94;86.87;99704.09;5105407;28;20032;-71
2021/11/03 03:40:59;;;;;;;51.28;21.45;;;;;;;8.90;87.35;99702.75;5111502;27;20199;-71
2021/11/03 03:43:25;;;;;;;51.30;22.98;;;;;;;8.95;87.09;99706.59;5115100;27;20353;-71
2021/11/03 03:45:51;;;;;;;63.10;21.75;;;;;;;8.97;86.82;99703.78;5114735;27;20061;-71
2021/11/03 03:48:17;;;;;;;51.92;20.90;;;;;;;8.99;86.66;99699.19;5118512;27;20039;-71
2021/11/03 03:50:42;;;;;;;64.07;21.42;;;;;;;9.07;86.03;99712.47;5120090;27;20027;-71
2021/11/03 03:53:10;;;;;;;45.08;19.52;;;;;;;9.14;85.21;99710.88;5114875;27;20070;-71
2021/11/03 03:55:36;;;;;;;57.03;20.38;;;;;;;9.06;85.75;99707.31;5116708;27;20043;-71
2021/11/03 03:58:02;;;;;;;69.93;20.98;;;;;;;9.05;85.84;99719.72;5110838;27;20357;-71
2021/11/03 04:00:27;;;;;;;63.83;19.77;;;;;;;9.02;85.21;99703.34;5114960;27;20316;-71
2021/11/03 04:02:53;;;;;;;46.03;19.33;;;;;;;8.98;84.80;99710.72;5118475;27;20117;-72
2021/11/03 04:05:21;;;;;;;47.80;20.15;;;;;;;8.87;85.50;99724.16;5118835;27;20205;-71
2021/11/03 04:07:46;;;;;;;62.75;21.83;;;;;;;8.88;85.66;99725.84;5115136;27;20038;-71
2021/11/03 04:10:12;;;;;;;64.40;21.15;;;;;;;8.87;86.36;99729.44;5111401;27;20102;-71
2021/11/03 04:12:39;;;;;;;61.72;20.23;;;;;;;8.77;85.05;99728.69;5107847;27;20085;-71
2021/11/03 04:15:06;;;;;;;63.78;20.63;;;;;;;8.64;86.50;99729.06;5107650;28;20027;-71
2021/11/03 04:17:32;;;;;;;44.97;20.13;;;;;;;8.62;87.44;99736.31;5115647;27;20036;-71
2021/11/03 04:19:57;;;;;;;74.10;22.75;;;;;;;8.50;88.70;99745.44;5114239;27;20097;-71
2021/11/03 04:22:23;;;;;;;89.30;22.95;;;;;;;8.48;89.46;99734.19;5111094;27;20199;-71
2021/11/03 04:24:48;;;;;;;98.40;22.40;;;;;;;8.50;88.78;99725.16;5118550;27;20100;-72
2021/11/03 04:27:13;;;;;;;128.27;23.75;;;;;;;8.52;89.30;99735.56;5106911;27;20099;-71
2021/11/03 04:29:39;;;;;;;99.93;24.55;;;;;;;8.56;90.09;99739.56;5115828;27;20136;-71
2021/11/03 04:32:05;;;;;;;127.18;27.83;;;;;;;8.62;89.85;99731.03;5117673;27;20043;-71
2021/11/03 04:34:30;;;;;;;136.35;46.65;;;;;;;8.64;89.89;99739.63;5109745;27;20053;-71
2021/11/03 04:36:55;;;;;;;99.38;29.80;;;;;;;8.68;89.64;99738.34;5117396;27;20043;-71
2021/11/03 04:39:21;;;;;;;171.68;27.10;;;;;;;8.60;89.70;99733.81;5118060;27;20098;-71
2021/11/03 04:41:47;;;;;;;152.25;28.20;;;;;;;8.56;90.78;99750.09;5103944;28;20230;-71
2021/11/03 04:44:13;;;;;;;140.15;26.83;;;;;;;8.32;92.31;99755.88;5113689;27;20028;-71
2021/11/03 04:46:39;;;;;;;134.63;21.70;;;;;;;8.43;92.40;99755.75;5115303;27;20064;-71
2021/11/03 04:49:05;;;;;;;153.25;20.92;;;;;;;8.45;92.72;99752.97;5110721;27;20015;-71
2021/11/03 04:51:31;;;;;;;108.25;20.05;;;;;;;8.45;93.32;99756.44;5112764;27;20024;-71
2021/11/03 04:53:56;;;;;;;89.15;19.02;;;;;;;8.71;92.29;99764.44;5106853;28;20019;-71
2021/11/03 04:56:24;;;;;;;117.30;18.38;;;;;;;8.67;92.08;99760.44;5109098;27;20329;-71
2021/11/03 04:58:51;;;;;;;115.40;20.58;;;;;;;8.79;92.00;99777.72;5105990;28;20264;-71
2021/11/03 05:01:20;;;;;;;96.70;21.52;;;;;;;8.82;91.67;99780.06;5112469;27;20024;-71
2021/11/03 05:03:50;;;;;;;98.55;19.13;;;;;;;8.87;91.07;99788.38;5114146;27;20028;-70
2021/11/03 05:06:17;;;;;;;81.50;18.65;;;;;;;8.97;89.76;99788.31;5109448;27;20090;-71
2021/11/03 05:08:43;;;;;;;122.90;20.90;;;;;;;8.87;90.89;99780.44;5112921;27;20245;-71
2021/11/03 05:11:09;;;;;;;107.85;18.75;;;;;;;8.78;91.50;99770.78;5105255;27;20257;-71
2021/11/03 05:13:34;;;;;;;74.35;15.32;;;;;;;8.85;90.78;99779.78;5113937;27;20325;-71
2021/11/03 05:16:01;;;;;;;106.90;21.33;;;;;;;8.81;91.57;99786.34;5112748;27;20038;-70
2021/11/03 05:18:26;;;;;;;123.80;21.73;;;;;;;8.88;90.65;99792.69;5116159;27;20038;-71
2021/11/03 05:20:52;;;;;;;64.70;17.35;;;;;;;8.97;90.05;99796.22;5111546;27;20035;-71
2021/11/03 05:23:17;;;;;;;72.72;14.10;;;;;;;8.94;90.72;99801.81;5112558;27;20035;-71
2021/11/03 05:25:43;;;;;;;83.88;15.45;;;;;;;9.00;89.37;99795.09;5111585;27;20087;-71
2021/11/03 05:28:10;;;;;;;57.30;13.77;;;;;;;9.02;89.10;99793.13;5109969;27;20509;-71
2021/11/03 05:30:36;;;;;;;51.90;13.45;;;;;;;9.17;87.71;99799.53;5107050;27;20051;-71
2021/11/03 05:33:02;;;;;;;65.20;14.43;;;;;;;8.99;89.66;99796.91;5113455;27;20045;-71
2021/11/03 05:35:27;;;;;;;68.28;14.30;;;;;;;9.06;88.33;99803.25;5106720;28;20027;-71
2021/11/03 05:37:53;;;;;;;73.07;15.77;;;;;;;9.02;88.32;99807.16;5114274;27;20046;-71
2021/11/03 05:40:22;;;;;;;76.68;17.45;;;;;;;8.91;88.53;99815.31;5119441;27;20347;-71
2021/11/03 05:42:47;;;;;;;68.18;17.45;;;;;;;8.73;89.37;99817.09;5107918;28;20110;-71
2021/11/03 05:45:13;;;;;;;78.60;16.17;;;;;;;8.65;90.26;99820.47;5113589;27;20020;-71
2021/11/03 05:47:39;;;;;;;67.53;17.17;;;;;;;8.72;90.04;99816.28;5122267;27;20369;-71
2021/11/03 05:50:07;;;;;;;61.38;15.77;;;;;;;8.63;90.89;99822.44;5131048;27;20031;-70
2021/11/03 05:52:32;;;;;;;63.53;16.00;;;;;;;8.67;91.49;99839.63;5122079;28;20043;-71
2021/11/03 05:54:58;;;;;;;62.42;14.68;;;;;;;8.62;90.18;99852.44;5136047;27;20340;-71
2021/11/03 05:57:32;;;;;;;38.88;15.20;;;;;;;8.59;90.21;99842.19;5127106;28;20023;-71
2021/11/03 06:00:00;;;;;;;73.53;16.40;;;;;;;8.58;90.09;99857.19;5127844;28;20109;-71
2021/11/03 06:02:26;;;;;;;69.40;17.83;;;;;;;8.65;90.69;99854.78;5126336;27;20317;-71
2021/11/03 06:04:51;;;;;;;57.65;17.48;;;;;;;8.78;90.83;99850.00;5122671;28;20054;-71
2021/11/03 06:07:21;;;;;;;70.13;19.50;;;;;;;8.87;90.29;99843.00;5126336;28;20047;-71
2021/11/03 06:09:47;;;;;;;67.57;19.52;;;;;;;8.93;89.42;99843.22;5126036;28;20027;-71
2021/11/03 06:12:12;;;;;;;64.68;17.35;;;;;;;9.10;87.97;99857.44;5124877;28;20356;-71
2021/11/03 06:14:38;;;;;;;56.80;16.20;;;;;;;8.98;87.37;99857.81;5126092;27;20031;-71
2021/11/03 06:17:04;;;;;;;49.78;15.70;;;;;;;8.59;88.84;99873.84;5126288;28;20106;-70
2021/11/03 06:19:29;;;;;;;54.05;16.88;;;;;;;8.64;89.19;99882.16;5128068;27;20329;-71
2021/11/03 06:21:55;;;;;;;72.65;21.55;;;;;;;8.45;90.47;99884.91;5134014;27;20039;-71
2021/11/03 06:24:23;;;;;;;63.40;16.27;;;;;;;8.27;92.05;99901.41;5127800;27;20035;-71
2021/11/03 06:26:49;;;;;;;62.08;15.05;;;;;;;8.37;92.70;99905.91;5118202;28;20304;-71
2021/11/03 06:29:14;;;;;;;67.35;14.63;;;;;;;8.22;92.23;99916.00;5125738;28;20027;-71
2021/11/03 06:31:40;;;;;;;68.78;15.05;;;;;;;8.23;93.22;99929.06;5125989;28;20019;-71
2021/11/03 06:34:07;;;;;;;39.80;13.98;;;;;;;8.38;93.47;99936.59;5124946;28;20378;-71
2021/11/03 06:36:34;;;;;;;48.75;13.68;;;;;;;8.52;91.56;99936.94;5124883;28;20060;-71
2021/11/03 06:38:59;;;;;;;60.42;15.27;;;;;;;8.53;91.25;99932.50;5124431;28;20027;-71
2021/11/03 06:41:26;;;;;;;80.13;17.40;;;;;;;8.29;93.67;99933.75;5124593;28;20046;-71
2021/11/03 06:43:52;;;;;;;68.15;17.30;;;;;;;7.88;94.50;99897.19;5124474;28;20035;-71
2021/11/03 06:46:18;;;;;;;88.03;20.25;;;;;;;7.88;95.79;99934.13;5124883;28;20031;-71
2021/11/03 06:48:44;;;;;;;122.30;29.75;;;;;;;7.90;97.54;99943.53;5124728;28;20221;-71
2021/11/03 06:51:09;;;;;;;121.47;33.75;;;;;;;8.00;97.19;99947.00;5124607;28;20031;-71
2021/11/03 06:53:36;;;;;;;122.40;24.08;;;;;;;8.05;95.76;99941.31;5117483;27;20317;-71
2021/11/03 06:56:03;;;;;;;117.10;23.05;;;;;;;8.10;96.71;99948.78;5125006;27;20047;-71
2021/11/03 06:58:29;;;;;;;69.35;19.08;;;;;;;8.25;96.29;99939.47;5125932;27;20077;-71
2021/11/03 07:00:55;;;;;;;95.43;16.95;;;;;;;8.41;95.60;99944.22;5125465;27;20035;-71
2021/11/03 07:03:23;;;;;;;164.85;21.77;;;;;;;8.26;96.29;99949.88;5123769;27;20331;-71
2021/11/03 07:05:50;;;;;;;127.60;19.65;;;;;;;8.39;94.87;99951.44;5125187;27;20032;-71
2021/11/03 07:08:17;;;;;;;133.10;18.48;;;;;;;8.63;94.36;99944.69;5124871;27;20031;-71
2021/11/03 07:10:47;;;;;;;128.45;17.85;;;;;;;8.46;94.55;99955.16;5126637;27;20033;-71
2021/11/03 07:13:13;;;;;;;130.20;16.45;;;;;;;8.44;95.43;99950.03;5124297;27;20065;-71
2021/11/03 07:15:40;;;;;;;165.23;18.67;;;;;;;8.39;96.25;99947.00;5123080;28;20038;-71
2021/11/03 07:18:07;;;;;;;178.35;18.42;;;;;;;8.42;96.27;99965.19;5124321;27;20031;-71
2021/11/03 07:20:32;;;;;;;193.15;18.95;;;;;;;8.49;95.64;99965.44;5125221;27;20050;-71
2021/11/03 07:22:58;;;;;;;176.35;20.48;;;;;;;8.17;97.40;99955.16;5125158;27;20093;-71
2021/11/03 07:25:25;;;;;;;197.70;21.25;;;;;;;8.15;98.80;99955.31;5124338;27;20027;-71
2021/11/03 07:27:54;;;;;;;171.27;19.08;;;;;;;8.41;97.99;99947.69;5125685;27;20027;-71
2021/11/03 07:30:22;;;;;;;128.00;22.05;;;;;;;8.51;99.24;99935.28;5124473;27;20023;-71
2021/11/03 07:32:47;;;;;;;206.25;28.42;;;;;;;8.43;100.00;99942.25;5125761;27;20304;-71
2021/11/03 07:35:13;;;;;;;147.55;27.17;;;;;;;8.46;100.00;99949.88;5124808;28;20076;-71
2021/11/03 07:37:39;;;;;;;141.60;28.33;;;;;;;8.42;100.00;99961.72;5124359;27;20020;-71
2021/11/03 07:40:09;;;;;;;117.32;28.08;;;;;;;8.76;100.00;99959.38;5124636;27;20073;-71
2021/11/03 07:42:34;;;;;;;74.57;23.45;;;;;;;9.22;97.49;99959.28;5124889;27;20027;-71
2021/11/03 07:45:00;;;;;;;180.30;25.80;;;;;;;9.41;95.73;99952.25;5123751;28;20098;-71
2021/11/03 07:47:25;;;;;;;146.35;24.65;;;;;;;9.04;97.04;99947.84;5123472;27;20258;-71
2021/11/03 07:49:51;;;;;;;131.95;23.63;;;;;;;9.29;95.89;99949.78;5124010;27;20247;-71
2021/11/03 07:52:16;;;;;;;126.35;27.00;;;;;;;9.27;97.42;99957.03;5123783;27;20090;-70
2021/11/03 07:54:43;;;;;;;144.00;24.15;;;;;;;9.34;96.37;99953.78;5124093;27;20060;-70
2021/11/03 07:57:09;;;;;;;139.55;22.65;;;;;;;9.36;96.50;99957.94;5125251;27;20045;-71
2021/11/03 07:59:34;;;;;;;224.18;26.40;;;;;;;8.96;98.60;99959.13;5124634;27;20226;-72
2021/11/03 08:02:00;;;;;;;135.30;23.33;;;;;;;8.96;99.63;99969.69;5125030;27;20042;-72
2021/11/03 08:04:26;;;;;;;198.23;25.10;;;;;;;9.08;99.80;99967.69;5123139;27;20027;-71
2021/11/03 08:06:52;;;;;;;130.07;21.35;;;;;;;9.17;99.27;99969.47;5124151;27;20031;-71
2021/11/03 08:09:17;;;;;;;159.30;23.77;;;;;;;9.33;99.45;99967.97;5125184;27;20392;-71
2021/11/03 08:12:09;;;;;;;135.38;24.67;;;;;;;9.57;99.19;99955.88;5124291;27;20051;-71
2021/11/03 08:14:34;;;;;;;113.30;25.63;;;;;;;9.82;96.61;99975.44;5122766;28;20038;-72
2021/11/03 08:17:10;;;;;;;117.63;25.52;;;;;;;9.95;95.44;99963.66;5121840;27;20024;-71
2021/11/03 08:19:41;;;;;;;154.73;25.85;;;;;;;10.15;93.63;99978.38;5121892;27;20035;-72
2021/11/03 08:22:07;;;;;;;152.32;29.20;;;;;;;10.07;94.12;99980.94;5123270;27;20032;-71
2021/11/03 08:24:32;;;;;;;89.57;26.30;;;;;;;10.16;94.56;99987.97;5123915;27;20281;-72
2021/11/03 08:26:58;;;;;;;99.80;31.23;;;;;;;10.35;94.62;99977.22;5122325;27;20336;-72
2021/11/03 08:29:23;;;;;;;133.20;32.97;;;;;;;10.35;93.73;99979.88;5123818;27;20042;-72
2021/11/03 08:31:52;;;;;;;103.75;31.65;;;;;;;10.32;95.11;99979.34;5123456;27;20091;-72
2021/11/03 08:34:18;;;;;;;117.57;33.63;;;;;;;10.59;93.73;99991.63;5124256;27;20240;-71
2021/11/03 08:36:44;;;;;;;126.72;34.80;;;;;;;10.65;92.38;99964.53;5122254;27;20225;-72
2021/11/03 08:39:10;;;;;;;128.30;35.20;;;;;;;10.66;92.82;99996.16;5123624;27;20373;-71
2021/11/03 08:41:37;;;;;;;81.18;33.20;;;;;;;10.90;91.61;99992.81;5122278;28;20044;-72
2021/11/03 08:44:02;;;;;;;137.80;35.30;;;;;;;10.95;92.00;100000.28;5122578;28;20054;-72
2021/11/03 08:46:28;;;;;;;82.32;32.45;;;;;;;11.04;92.04;99992.22;5122561;27;20320;-72
2021/11/03 08:48:59;;;;;;;108.20;32.40;;;;;;;10.70;92.70;99999.31;5122489;27;20020;-72
2021/11/03 08:51:30;;;;;;;103.03;30.30;;;;;;;10.58;93.79;100004.03;5123052;27;20032;-72
2021/11/03 08:53:57;;;;;;;128.90;30.33;;;;;;;10.62;93.89;99997.44;5123338;27;20031;-72
2021/11/03 08:56:23;;;;;;;111.72;34.40;;;;;;;10.69;93.98;99995.84;5123155;27;20027;-72
2021/11/03 08:58:49;;;;;;;142.73;32.55;;;;;;;10.66;93.77;99988.22;5124197;27;20093;-72
2021/11/03 09:01:14;;;;;;;124.40;32.58;;;;;;;10.77;94.90;99993.22;5123479;27;20298;-72
2021/11/03 09:03:41;;;;;;;114.35;33.65;;;;;;;10.78;96.62;99980.81;5123440;27;20397;-72
2021/11/03 09:06:07;;;;;;;115.80;33.67;;;;;;;10.74;96.85;99998.84;5121934;28;20098;-71
2021/11/03 09:08:37;;;;;;;79.35;35.78;;;;;;;10.64;98.48;99992.00;5122089;27;20424;-71
2021/11/03 09:11:04;;;;;;;95.55;34.92;;;;;;;10.71;98.97;99988.56;5121769;28;20033;-72
2021/11/03 09:13:32;;;;;;;65.63;32.58;;;;;;;10.92;98.79;99990.00;5122000;27;20038;-72
2021/11/03 09:15:58;;;;;;;72.80;29.08;;;;;;;10.96;97.44;99984.22;5122855;27;20039;-72
2021/11/03 09:18:24;;;;;;;73.07;27.23;;;;;;;11.02;98.16;99977.47;5121978;27;20062;-72
2021/11/03 09:20:51;;;;;;;65.53;28.88;;;;;;;10.85;97.37;99965.97;5122984;27;20160;-72
2021/11/03 09:23:19;;;;;;;77.15;28.35;;;;;;;11.10;99.61;99967.72;5121098;28;20043;-72
2021/11/03 09:25:46;;;;;;;64.22;29.42;;;;;;;11.12;99.22;99964.91;5123155;27;20028;-72
2021/11/03 09:28:11;;;;;;;74.68;28.98;;;;;;;11.44;99.05;99959.75;5122724;27;20043;-72
2021/11/03 09:30:38;;;;;;;71.68;34.33;;;;;;;11.02;100.00;99961.56;5122926;27;20221;-72
2021/11/03 09:33:06;;;;;;;123.85;46.15;;;;;;;11.13;100.00;99963.91;5121383;28;20024;-71
2021/11/03 09:35:35;;;;;;;215.45;66.03;;;;;;;11.24;100.00;99965.44;5121714;28;20039;-71
2021/11/03 09:38:02;;;;;;;203.38;65.75;;;;;;;11.18;100.00;99954.50;5121012;28;20313;-71
2021/11/03 09:40:35;;;;;;;192.32;70.43;;;;;;;11.62;100.00;99945.50;5121484;28;20094;-72
2021/11/03 09:43:02;;;;;;;90.63;44.00;;;;;;;11.72;100.00;99947.00;5122435;27;20035;-72
2021/11/03 09:45:34;;;;;;;83.68;42.30;;;;;;;11.86;100.00;99960.66;5121703;28;20035;-72
2021/11/03 09:48:05;;;;;;;75.28;41.30;;;;;;;11.99;97.70;99969.78;5120728;28;20027;-72
2021/11/03 09:50:37;;;;;;;81.97;39.63;;;;;;;12.11;98.06;99968.47;5122176;28;20033;-72
2021/11/03 09:53:22;;;;;;;75.85;39.15;;;;;;;12.21;96.75;99957.66;5122932;28;20023;-72
2021/11/03 09:55:47;;;;;;;;;;;;;;;12.45;96.37;99962.13;5120236;28;20031;-72
2021/11/03 09:58:24;;;;;;;72.40;36.28;;;;;;;12.63;95.83;99957.47;5122231;28;19994;-72
2021/11/03 10:00:56;;;;;;;80.22;40.00;;;;;;;12.65;95.67;99950.16;5120198;28;20064;-72
2021/11/03 10:03:34;;;;;;;68.32;36.70;;;;;;;12.72;96.35;99952.94;5120034;28;20337;-72
2021/11/03 10:06:07;;;;;;;56.65;30.80;;;;;;;12.58;95.87;99951.81;5121970;28;20027;-72
2021/11/03 10:08:40;;;;;;;51.17;31.13;;;;;;;12.53;96.53;99951.50;5122024;28;20047;-72
2021/11/03 10:11:27;;;;;;;56.17;31.80;;;;;;;12.87;95.54;99945.09;5121255;28;20059;-72
2021/11/03 10:13:58;;;;;;;54.42;31.75;;;;;;;12.78;96.25;99942.47;5121240;28;20097;-72
2021/11/03 10:16:33;;;;;;;53.00;29.75;;;;;;;12.72;96.47;99932.53;5119816;28;20052;-72
2021/11/03 10:19:20;;;;;;;57.10;29.80;;;;;;;13.01;96.76;99923.09;5121417;28;20028;-72
2021/11/03 10:22:18;;;;;;;60.13;30.98;;;;;;;13.25;95.11;99914.22;5121751;28;20372;-73
2021/11/03 10:24:58;;;;;;;53.55;29.88;;;;;;;13.23;93.80;99903.75;5121551;28;20039;-72
2021/11/03 10:27:23;;;;;;;56.08;31.65;;;;;;;13.36;94.94;99898.69;5122390;28;20088;-72
2021/11/03 10:29:55;;;;;;;52.17;27.73;;;;;;;13.11;96.57;99891.81;5121760;27;20091;-72
2021/11/03 10:32:50;;;;;;;50.72;28.52;;;;;;;13.32;96.81;99892.06;5122000;28;20042;-72
2021/11/03 10:35:37;;;;;;;53.58;27.50;;;;;;;13.07;97.32;99890.50;5112030;28;20058;-72
2021/11/03 10:38:18;;;;;;;53.88;29.30;;;;;;;13.19;97.59;99890.97;5122071;28;20028;-72
2021/11/03 10:41:01;;;;;;;43.70;25.17;;;;;;;13.35;95.52;99881.06;5118739;28;20443;-72
2021/11/03 10:43:32;;;;;;;43.70;25.58;;;;;;;13.81;96.42;99870.44;5115803;28;20027;-72
2021/11/03 10:46:23;;;;;;;37.15;21.08;;;;;;;13.77;95.31;99873.63;5110860;28;20213;-72
2021/11/03 10:48:52;;;;;;;33.72;18.33;;;;;;;13.90;92.58;99872.00;5115338;27;20282;-73
2021/11/03 10:51:34;;;;;;;28.00;15.90;;;;;;;13.99;89.68;99876.25;5117788;27;20039;-72
2021/11/03 10:54:09;;;;;;;24.60;14.90;;;;;;;14.02;89.28;99865.25;5118408;27;20027;-72
2021/11/03 10:56:49;;;;;;;26.73;14.02;;;;;;;14.10;88.76;99863.50;5120652;27;20049;-72
2021/11/03 10:59:17;;;;;;;22.80;13.52;;;;;;;14.37;87.71;99869.03;5122472;27;20023;-72
2021/11/03 11:01:46;;;;;;;22.45;12.73;;;;;;;14.44;85.50;99861.16;5116703;27;20015;-72
2021/11/03 11:04:11;;;;;;;20.08;11.55;;;;;;;14.38;86.16;99861.88;5119757;27;20023;-72
2021/11/03 11:06:45;;;;;;;20.65;13.10;;;;;;;14.68;86.02;99850.25;5118397;27;20037;-72
2021/11/03 11:09:10;;;;;;;22.98;12.70;;;;;;;14.85;84.74;99845.53;5116791;27;20126;-71
2021/11/03 11:11:41;;;;;;;17.67;10.30;;;;;;;14.99;81.60;99842.00;5117122;27;20019;-72
2021/11/03 11:14:20;;;;;;;18.95;11.63;;;;;;;15.01;81.91;99845.31;5117292;27;20035;-72
2021/11/03 11:16:54;;;;;;;19.73;10.73;;;;;;;15.06;83.19;99852.75;5121682;27;20031;-72
2021/11/03 11:19:40;;;;;;;15.48;9.90;;;;;;;15.12;82.35;99846.66;5118637;27;20355;-72
2021/11/03 11:22:11;;;;;;;15.30;9.25;;;;;;;15.12;81.17;99845.81;5119639;27;20050;-71
2021/11/03 11:25:04;;;;;;;20.83;10.45;;;;;;;15.17;81.84;99840.75;5116645;27;20140;-71